createdAt,value
2019-03-15T00:00:33.450Z,9.76
2019-03-15T00:03:56.961Z,9.76
2019-03-15T00:07:20.144Z,9.61
2019-03-15T00:10:43.424Z,9.66
2019-03-15T00:14:06.595Z,9.59
2019-03-15T00:17:29.665Z,9.83
2019-03-15T00:20:53.115Z,9.46
2019-03-15T00:24:16.292Z,9.38
2019-03-15T00:27:39.412Z,9.38
2019-03-15T00:31:02.658Z,9.62
2019-03-15T00:34:26.657Z,9.75
2019-03-15T00:37:49.885Z,9.86
2019-03-15T00:41:13.110Z,9.76
2019-03-15T00:44:36.412Z,9.89
2019-03-15T00:47:59.584Z,9.67
2019-03-15T00:51:22.830Z,9.88
2019-03-15T00:54:45.955Z,9.71
2019-03-15T00:58:09.101Z,9.89
2019-03-15T01:01:32.404Z,9.84
2019-03-15T01:04:55.581Z,9.78
2019-03-15T01:08:19.026Z,9.71
2019-03-15T01:11:45.362Z,9.50
2019-03-15T01:15:07.417Z,9.65
2019-03-15T01:18:30.582Z,10.14
2019-03-15T01:21:53.994Z,9.62
2019-03-15T01:25:18.533Z,9.87
2019-03-15T01:28:41.641Z,9.78
2019-03-15T01:32:04.795Z,9.98
2019-03-15T01:35:28.226Z,9.86
2019-03-15T01:38:51.544Z,10.12
2019-03-15T01:42:14.620Z,9.87
2019-03-15T01:45:37.778Z,10.05
2019-03-15T01:49:00.903Z,10.00
2019-03-15T01:52:24.437Z,9.92
2019-03-15T01:55:47.614Z,10.06
2019-03-15T01:59:11.398Z,9.75
2019-03-15T02:02:34.577Z,9.75
2019-03-15T02:05:58.134Z,9.99
2019-03-15T02:09:21.233Z,9.75
2019-03-15T02:12:44.475Z,9.77
2019-03-15T02:16:08.762Z,9.97
2019-03-15T02:19:32.106Z,9.74
2019-03-15T02:22:55.306Z,9.79
2019-03-15T02:26:18.368Z,9.89
2019-03-15T02:29:41.826Z,9.74
2019-03-15T02:33:06.034Z,9.43
2019-03-15T02:36:29.609Z,9.74
2019-03-15T02:39:52.865Z,9.63
2019-03-15T02:43:16.117Z,9.55
2019-03-15T02:46:39.261Z,9.80
2019-03-15T02:50:02.580Z,9.56
2019-03-15T02:53:25.992Z,9.95
2019-03-15T02:56:50.127Z,9.74
2019-03-15T03:00:13.984Z,10.04
2019-03-15T03:03:37.542Z,9.83
2019-03-15T03:07:00.834Z,9.94
2019-03-15T03:10:24.509Z,9.73
2019-03-15T03:13:47.675Z,9.74
2019-03-15T03:17:10.812Z,9.54
2019-03-15T03:20:33.915Z,9.77
2019-03-15T03:23:57.544Z,9.66
2019-03-15T03:27:20.976Z,9.69
2019-03-15T03:30:45.750Z,9.77
2019-03-15T03:34:09.202Z,9.77
2019-03-15T03:37:32.395Z,9.38
2019-03-15T03:40:56.432Z,9.21
2019-03-15T03:44:19.895Z,9.41
2019-03-15T03:47:43.513Z,9.52
2019-03-15T03:51:06.758Z,9.67
2019-03-15T03:54:30.505Z,9.33
2019-03-15T03:57:53.786Z,9.82
2019-03-15T04:01:16.914Z,9.84
2019-03-15T04:04:40.078Z,9.51
2019-03-15T04:08:03.232Z,9.51
2019-03-15T04:11:26.686Z,9.96
2019-03-15T04:14:50.073Z,9.24
2019-03-15T04:18:13.539Z,9.46
2019-03-15T04:21:36.972Z,9.65
2019-03-15T04:25:00.145Z,9.69
2019-03-15T04:28:23.446Z,9.56
2019-03-15T04:31:46.530Z,9.37
2019-03-15T04:35:09.766Z,9.53
2019-03-15T04:38:32.887Z,9.65
2019-03-15T04:41:56.323Z,9.34
2019-03-15T04:45:19.851Z,9.54
2019-03-15T04:48:43.530Z,9.24
2019-03-15T04:52:06.937Z,9.52
2019-03-15T04:55:30.073Z,9.60
2019-03-15T04:58:53.495Z,9.38
2019-03-15T05:02:17.046Z,9.49
2019-03-15T05:05:40.318Z,9.49
2019-03-15T05:09:04.562Z,9.45
2019-03-15T05:12:27.731Z,9.68
2019-03-15T05:15:50.884Z,9.65
2019-03-15T05:19:14.259Z,10.00
2019-03-15T05:22:37.383Z,9.41
2019-03-15T05:26:02.148Z,9.54
2019-03-15T05:29:25.358Z,9.58
2019-03-15T05:32:48.857Z,9.77
2019-03-15T05:36:12.078Z,10.08
2019-03-15T05:39:35.279Z,9.53
2019-03-15T05:42:58.464Z,10.11
2019-03-15T05:46:21.939Z,10.07
2019-03-15T05:49:45.179Z,9.78
2019-03-15T05:53:08.363Z,9.79
2019-03-15T05:56:31.816Z,9.77
2019-03-15T05:59:55.304Z,9.63
2019-03-15T06:03:18.566Z,9.39
2019-03-15T06:06:41.840Z,9.87
2019-03-15T06:10:05.948Z,9.82
2019-03-15T06:13:29.632Z,9.72
2019-03-15T06:16:53.129Z,9.94
2019-03-15T06:20:16.253Z,9.64
2019-03-15T06:23:39.345Z,9.90
2019-03-15T06:27:03.511Z,9.75
2019-03-15T06:30:31.821Z,9.84
2019-03-15T06:33:54.987Z,9.92
2019-03-15T06:37:18.462Z,9.61
2019-03-15T06:40:41.790Z,9.69
2019-03-15T06:44:04.976Z,9.20
2019-03-15T06:47:28.576Z,9.40
2019-03-15T06:50:51.769Z,9.47
2019-03-15T06:54:15.028Z,9.38
2019-03-15T06:57:39.101Z,9.55
2019-03-15T07:01:02.299Z,9.89
2019-03-15T07:04:25.560Z,9.49
2019-03-15T07:07:48.964Z,9.49
2019-03-15T07:11:12.276Z,9.40
2019-03-15T07:14:35.461Z,9.45
2019-03-15T07:17:58.822Z,9.57
2019-03-15T07:21:21.966Z,9.58
2019-03-15T07:24:45.104Z,9.56
2019-03-15T07:28:08.414Z,9.77
2019-03-15T07:31:31.677Z,9.94
2019-03-15T07:34:54.841Z,9.77
2019-03-15T07:38:18.144Z,9.95
2019-03-15T07:41:41.697Z,10.00
2019-03-15T07:45:05.181Z,9.95
2019-03-15T07:48:28.524Z,9.99
2019-03-15T07:51:51.868Z,10.08
2019-03-15T07:55:15.167Z,9.70
2019-03-15T07:58:39.373Z,9.71
2019-03-15T08:02:02.709Z,9.97
2019-03-15T08:05:25.905Z,9.74
2019-03-15T08:08:49.112Z,9.52
2019-03-15T08:12:12.565Z,9.54
2019-03-15T08:15:35.892Z,9.88
2019-03-15T08:18:59.013Z,9.99
2019-03-15T08:22:22.525Z,9.92
2019-03-15T08:25:45.909Z,9.59
2019-03-15T08:29:09.859Z,9.73
2019-03-15T08:32:33.290Z,9.89
2019-03-15T08:35:56.491Z,10.13
2019-03-15T08:39:20.164Z,10.02
2019-03-15T08:42:43.721Z,9.99
2019-03-15T08:46:06.980Z,9.80
2019-03-15T08:49:30.533Z,10.10
2019-03-15T08:52:54.206Z,10.10
2019-03-15T08:56:17.709Z,9.97
2019-03-15T08:59:53.776Z,10.49
2019-03-15T09:03:05.984Z,10.35
2019-03-15T09:06:29.180Z,10.59
2019-03-15T09:09:52.389Z,10.59
2019-03-15T09:13:15.530Z,11.05
2019-03-15T09:16:38.747Z,10.88
2019-03-15T09:20:01.970Z,11.33
2019-03-15T09:23:25.959Z,11.45
2019-03-15T09:26:49.096Z,11.57
2019-03-15T09:30:22.603Z,11.64
2019-03-15T09:33:37.431Z,11.68
2019-03-15T09:37:01.228Z,11.91
2019-03-15T09:40:25.859Z,11.99
2019-03-15T09:43:49.771Z,12.01
2019-03-15T09:47:12.919Z,12.15
2019-03-15T09:50:50.623Z,11.95
2019-03-15T09:54:08.769Z,12.32
2019-03-15T09:57:32.075Z,12.47
2019-03-15T10:00:55.446Z,12.30
2019-03-15T10:04:18.806Z,12.41
2019-03-15T10:07:43.635Z,12.07
2019-03-15T10:11:10.102Z,12.35
2019-03-15T10:14:33.315Z,12.71
2019-03-15T10:17:56.619Z,12.58
2019-03-15T10:21:20.053Z,12.58
2019-03-15T10:24:43.540Z,12.82
2019-03-15T10:28:09.082Z,12.90
2019-03-15T10:31:32.520Z,12.99
2019-03-15T10:34:55.978Z,12.78
2019-03-15T10:38:19.360Z,13.09
2019-03-15T10:41:42.496Z,13.00
2019-03-15T10:45:08.605Z,13.11
2019-03-15T10:48:31.830Z,12.88
2019-03-15T10:51:55.157Z,13.29
2019-03-15T10:55:20.632Z,12.88
2019-03-15T10:58:43.398Z,12.79
2019-03-15T11:02:06.897Z,13.34
2019-03-15T11:05:30.089Z,13.22
2019-03-15T11:08:53.196Z,13.79
2019-03-15T11:12:21.005Z,13.42
2019-03-15T11:15:44.183Z,13.23
2019-03-15T11:19:07.367Z,13.53
2019-03-15T11:22:30.939Z,13.54
2019-03-15T11:25:54.310Z,13.23
2019-03-15T11:29:17.596Z,13.40
2019-03-15T11:32:40.814Z,13.91
2019-03-15T11:36:04.210Z,13.53
2019-03-15T11:39:27.762Z,14.07
2019-03-15T11:42:51.184Z,13.29
2019-03-15T11:46:16.511Z,13.57
2019-03-15T11:49:39.524Z,13.85
2019-03-15T11:53:02.825Z,13.84
2019-03-15T11:56:27.250Z,13.65
2019-03-15T11:59:50.893Z,13.68
2019-03-15T12:03:14.040Z,13.88
2019-03-15T12:06:37.210Z,13.69
2019-03-15T12:10:00.467Z,13.73
2019-03-15T12:13:23.705Z,14.21
2019-03-15T12:16:46.898Z,13.98
2019-03-15T12:20:10.406Z,13.94
2019-03-15T12:23:33.580Z,14.17
2019-03-15T12:26:56.803Z,14.07
2019-03-15T12:30:20.219Z,14.27
2019-03-15T12:33:43.487Z,14.55
2019-03-15T12:37:06.637Z,14.34
2019-03-15T12:40:30.816Z,14.63
2019-03-15T12:43:54.125Z,14.40
2019-03-15T12:47:17.309Z,14.82
2019-03-15T12:50:40.402Z,14.84
2019-03-15T12:54:03.730Z,14.64
2019-03-15T12:57:27.191Z,14.69
2019-03-15T13:00:50.291Z,14.77
2019-03-15T13:04:13.779Z,14.68
2019-03-15T13:07:36.864Z,15.18
2019-03-15T13:11:01.488Z,14.69
2019-03-15T13:14:24.600Z,14.91
2019-03-15T13:17:47.690Z,14.65
2019-03-15T13:21:10.881Z,14.78
2019-03-15T13:24:34.092Z,14.95
2019-03-15T13:27:57.191Z,15.03
2019-03-15T13:31:20.345Z,14.53
2019-03-15T13:34:43.588Z,14.95
2019-03-15T13:38:06.751Z,14.77
2019-03-15T13:41:29.974Z,14.70
2019-03-15T13:44:53.155Z,14.65
2019-03-15T13:48:16.437Z,14.81
2019-03-15T13:51:39.611Z,14.68
2019-03-15T13:55:05.187Z,14.59
2019-03-15T13:58:28.554Z,14.67
2019-03-15T14:01:51.870Z,14.85
2019-03-15T14:05:15.409Z,14.92
2019-03-15T14:08:38.713Z,14.34
2019-03-15T14:12:02.153Z,14.50
2019-03-15T14:15:25.666Z,14.43
2019-03-15T14:18:48.967Z,14.72
2019-03-15T14:22:12.065Z,14.44
2019-03-15T14:25:35.341Z,14.59
2019-03-15T14:28:58.746Z,14.62
2019-03-15T14:32:22.879Z,14.91
2019-03-15T14:35:46.088Z,14.61
2019-03-15T14:39:10.470Z,14.70
2019-03-15T14:42:34.013Z,14.68
2019-03-15T14:45:57.438Z,14.68
2019-03-15T14:49:20.602Z,14.72
2019-03-15T14:52:45.059Z,14.72
2019-03-15T14:56:08.107Z,14.73
2019-03-15T14:59:31.292Z,14.80
2019-03-15T15:02:54.683Z,14.71
2019-03-15T15:06:17.831Z,14.74
2019-03-15T15:09:41.072Z,14.44
2019-03-15T15:13:04.148Z,14.60
2019-03-15T15:16:27.508Z,14.97
2019-03-15T15:19:50.725Z,14.66
2019-03-15T15:23:14.241Z,14.68
2019-03-15T15:26:37.466Z,14.87
2019-03-15T15:30:00.612Z,14.53
2019-03-15T15:33:23.852Z,14.37
2019-03-15T15:36:47.117Z,14.25
2019-03-15T15:40:10.732Z,14.08
2019-03-15T15:43:34.183Z,13.66
2019-03-15T15:46:58.630Z,13.40
2019-03-15T15:50:21.775Z,13.33
2019-03-15T15:53:45.017Z,13.60
2019-03-15T15:57:08.186Z,13.27
2019-03-15T16:00:31.417Z,13.46
2019-03-15T16:23:59.579Z,13.60
2019-03-15T16:27:23.297Z,13.32
2019-03-15T16:30:46.466Z,13.17
2019-03-15T16:34:09.658Z,13.21
2019-03-15T16:37:32.852Z,13.24
2019-03-15T16:40:55.999Z,13.03
2019-03-15T16:44:19.362Z,13.16
2019-03-15T16:47:42.813Z,12.91
2019-03-15T16:51:18.730Z,13.07
2019-03-15T16:54:31.004Z,13.43
2019-03-15T16:57:54.482Z,12.72
2019-03-15T17:01:17.644Z,13.09
2019-03-15T17:04:40.861Z,13.06
2019-03-15T17:08:03.943Z,12.94
2019-03-15T17:11:27.334Z,13.01
2019-03-15T17:14:50.610Z,12.71
2019-03-15T17:18:19.605Z,13.02
2019-03-15T17:21:44.044Z,12.87
2019-03-15T17:25:08.124Z,12.99
2019-03-15T17:28:31.532Z,13.00
2019-03-15T17:31:54.831Z,12.86
2019-03-15T17:35:18.038Z,12.87
2019-03-15T17:38:41.181Z,12.59
2019-03-15T17:42:04.350Z,12.93
2019-03-15T17:45:27.829Z,12.71
2019-03-15T17:48:51.053Z,12.85
2019-03-15T17:52:14.526Z,12.89
2019-03-15T17:55:37.639Z,12.88
2019-03-15T17:59:11.803Z,13.17
2019-03-15T18:02:26.210Z,13.10
2019-03-15T18:05:49.315Z,12.53
2019-03-15T18:09:12.703Z,12.16
2019-03-15T18:12:36.001Z,11.79
2019-03-15T18:15:59.301Z,11.98
2019-03-15T18:19:22.745Z,11.97
2019-03-15T18:22:46.277Z,11.55
2019-03-15T18:26:09.632Z,11.65
2019-03-15T18:29:33.052Z,11.70
2019-03-15T18:32:56.855Z,11.38
2019-03-15T18:36:20.483Z,11.14
2019-03-15T18:39:46.121Z,11.16
2019-03-15T18:43:09.549Z,11.05
2019-03-15T18:46:33.015Z,10.98
2019-03-15T18:49:56.540Z,11.27
2019-03-15T18:53:19.789Z,11.21
2019-03-15T18:56:45.548Z,11.33
2019-03-15T19:00:15.297Z,10.96
2019-03-15T19:03:39.030Z,10.97
2019-03-15T19:07:04.735Z,11.09
2019-03-15T19:10:28.241Z,11.18
2019-03-15T19:13:51.531Z,11.04
2019-03-15T19:17:15.007Z,11.45
2019-03-15T19:20:38.603Z,11.34
2019-03-15T19:24:05.624Z,11.38
2019-03-15T19:27:28.908Z,11.23
2019-03-15T19:30:54.509Z,11.41
2019-03-15T19:34:17.955Z,11.25
2019-03-15T19:37:41.256Z,11.20
2019-03-15T19:41:06.333Z,11.32
2019-03-15T19:44:30.922Z,11.22
2019-03-15T19:47:54.784Z,11.20
2019-03-15T19:51:17.930Z,11.35
2019-03-15T19:54:41.544Z,11.47
2019-03-15T19:58:04.850Z,11.25
2019-03-15T20:01:29.168Z,11.07
2019-03-15T20:04:52.465Z,11.27
2019-03-15T20:08:15.993Z,11.26
2019-03-15T20:11:39.731Z,11.11
2019-03-15T20:18:40.670Z,10.92
2019-03-15T20:22:04.112Z,10.78
2019-03-15T20:25:27.548Z,11.06
2019-03-15T20:32:57.334Z,10.95
2019-03-15T20:36:20.580Z,10.95
2019-03-15T20:39:44.185Z,11.07
2019-03-15T20:43:07.277Z,10.70
2019-03-15T20:46:35.730Z,10.84
2019-03-15T20:49:55.954Z,11.03
2019-03-15T20:53:19.386Z,11.07
2019-03-15T20:56:44.512Z,11.11
2019-03-15T21:00:10.659Z,11.03
2019-03-15T21:03:34.703Z,11.04
2019-03-15T21:06:58.227Z,10.99
2019-03-15T21:10:21.398Z,10.94
2019-03-15T21:13:45.176Z,10.93
2019-03-15T21:17:13.161Z,10.85
2019-03-15T21:20:36.337Z,11.05
2019-03-15T21:23:59.523Z,10.88
2019-03-15T21:27:22.755Z,10.86
2019-03-15T21:30:48.593Z,10.94
2019-03-15T21:34:11.940Z,11.03
2019-03-15T21:37:35.832Z,10.73
2019-03-15T21:40:59.001Z,10.73
2019-03-15T21:44:22.163Z,10.78
2019-03-15T21:47:45.654Z,10.95
2019-03-15T21:51:08.886Z,10.92
2019-03-15T21:54:32.720Z,10.99
2019-03-15T21:57:56.226Z,10.88
2019-03-15T22:01:19.631Z,10.99
2019-03-15T22:04:43.329Z,11.00
2019-03-15T22:08:06.851Z,10.88
2019-03-15T22:11:30.220Z,10.95
2019-03-15T22:14:54.159Z,10.92
2019-03-15T22:18:17.361Z,10.87
2019-03-15T22:21:40.681Z,10.92
2019-03-15T22:25:03.944Z,10.78
2019-03-15T22:28:27.104Z,10.96
2019-03-15T22:31:50.643Z,10.98
2019-03-15T22:35:13.832Z,10.98
2019-03-15T22:38:36.944Z,10.86
2019-03-15T22:42:00.182Z,11.04
2019-03-15T22:45:23.373Z,11.05
2019-03-15T22:48:46.846Z,10.83
2019-03-15T22:52:09.973Z,11.10
2019-03-15T22:55:33.468Z,11.06
2019-03-15T22:58:56.970Z,11.07
2019-03-15T23:02:20.204Z,10.99
2019-03-15T23:05:43.540Z,11.30
2019-03-15T23:09:07.157Z,11.19
2019-03-15T23:12:30.363Z,11.14
2019-03-15T23:15:53.487Z,11.05
2019-03-15T23:19:16.792Z,11.21
2019-03-15T23:22:41.082Z,11.17
2019-03-15T23:26:04.289Z,11.14
2019-03-15T23:29:27.410Z,11.25
2019-03-15T23:32:50.649Z,11.30
2019-03-15T23:36:13.749Z,11.40
2019-03-15T23:39:36.912Z,11.41
2019-03-15T23:42:59.993Z,11.42
2019-03-15T23:46:23.109Z,11.39
2019-03-15T23:49:46.188Z,11.36
2019-03-15T23:53:09.461Z,11.39
2019-03-15T23:56:32.565Z,11.50
2019-03-15T23:59:55.706Z,11.53
